Keszthely, Hungary
Current Conditions -  °F | °C
As of 5:45 PM on Saturday 22 Nov 2014 (Local Time) from LHSM Reporting Station
Clear Clear  
Wind Chill: 43°   Ceiling: Unl
Heat Index: 43°   Visibility: 6mi
Dew Point: 36°   Wind: 3mph
Humidity: 76%   Direction: 110°ESE
Pressure: 30.33"   Gusts: NA
Location:  46.77°N, 17.24°E
Report Text: LHSM 221545Z 11003KT CAVOK 06/02 Q1027 NOSIG
Loading
Personal Weather Stations






























Interactive Weather Map New forecast layout! Learn more

10-Day Weather Forecast

Advertisements
Track Severe Weather on mobile